Arvada, CO (80003)

5:03 PM MDT on October 20, 2014 (GMT -0600)
Arvada, CO | Change Station
CLOSE
Current Station
Personal Weather Station
Location: Arvada, CO
Elevation: 5472 ft
Nearby Weather Stations

Elev 5472 ft 39.82 °N, 105.07 °W | Updated 6 seconds ago

Partly Cloudy
Partly Cloudy
72.8 °F
Feels Like 76 °F
N
4.0
Wind Variable Wind from South
Gusts 7.0 mph

Today
High -- | Low -- °F
--% Chance of Precip.
Yesterday
High -- | Low -- °F
Precip. -- in
7:15 AM 6:13 PM
Waning Crescent, 8% visible
Pressure 30.07 in
Visibility 50.0 miles
Clouds Scattered Clouds 6000 ft
Heat Index 76 °F
Dew Point 39 °F
Humidity 29%
Rainfall 0.00 in
Snow Depth Not available.
UV 0.0 out of 12
Pollen 2.90 out of 12
Ozone Good
PM2.5 Good
Flu Activity Sporadic
METAR KBJC 202249Z 14009KT 50SM SCT060 24/02 A3007

More Conditions Fewer Conditions

Pressure 30.07 in
Visibility 50.0 miles
Clouds Scattered Clouds 6000 ft
Heat Index 76 °F
Dew Point 39 °F
Humidity 29%
Rainfall 0.00 in
Snow Depth Not available.
UV 0.0 out of 12
Pollen 2.90 out of 12
Ozone Good
PM2.5 Good
Flu Activity Sporadic
METAR KBJC 202249Z 14009KT 50SM SCT060 24/02 A3007

More Conditions Fewer Conditions

10-Day Weather Forecast

Almanac

Astronomy

Oct. 20, 2014 Rise Set
Actual Time 7:15 AM MDT 6:13 PM MDT
Civil Twilight 6:48 AM MDT 6:40 PM MDT
Nautical Twilight 6:16 AM MDT 7:12 PM MDT
Astronomical Twilight 5:45 AM MDT 7:43 PM MDT
Moon 4:06 AM MDT 4:37 PM MDT
Length of Visible Light 11h 52m
Length of Day
10h 57m
Tomorrow will be 2m 27s shorter.
Waning Crescent, 8% of the Moon is Illuminated
Today
Waning Crescent
Oct 23
New
Oct 30
First Quarter
Nov 6
Full
Nov 14
Last Quarter

Today's Extremes

State Highs State Lows

Community

WunderPhotos

Upload Photos

1,763,544 photos uploaded!

WunderBlogs® & News

By Dr. Jeff Masters
Director of Meteorology, Weather Underground
By Kari Strenfel
Meteorologist, Weather Underground
By Christopher C. Burt
Weather Historian, Weather Underground
October 20, 2014
October 20, 2014
October 20, 2014

Nearby

Air Quality

  Air Quality AQ Index Pollutant
Yesterday Good
OZONE
Yesterday Good
PM10
Current Good
OZONE
Current Good
PM2.5
Monday Good
OZONE
Monday Good
PM2.5
Tuesday Good
OZONE
Tuesday Good
PM2.5

Snow Depth

Station Depth Elevation
Wild Basin 0 in 9560 ft
Jackwhacker Gulch 0 in 10960 ft
Loveland Basin 1 in 11400 ft
Middle Fork Camp 0 in 9000 ft
Hoosier Pass 0 in 11400 ft

Earthquake Activity

City Distance Mag. Time & Date
No recent earthquake activity has been reported nearby.
Minimum magnitude displayed is 2.5.

Coastal Water Temperatures

Place Temperature
No Stations Reporting

Nearby Weather Stations